createdAt,value
2018-06-21T00:00:40.627Z,10.60
2018-06-21T00:03:09.131Z,10.43
2018-06-21T00:05:37.312Z,10.37
2018-06-21T00:08:05.793Z,9.50
2018-06-21T00:10:33.940Z,10.40
2018-06-21T00:13:02.426Z,8.97
2018-06-21T00:15:30.992Z,9.90
2018-06-21T00:17:59.209Z,11.13
2018-06-21T00:20:27.684Z,10.50
2018-06-21T00:22:56.138Z,9.47
2018-06-21T00:25:24.299Z,10.60
2018-06-21T00:27:52.951Z,10.30
2018-06-21T00:30:21.484Z,9.53
2018-06-21T00:32:49.933Z,10.10
2018-06-21T00:35:18.392Z,10.73
2018-06-21T00:37:46.922Z,9.97
2018-06-21T00:40:15.135Z,10.10
2018-06-21T00:42:43.303Z,9.97
2018-06-21T00:45:11.859Z,9.50
2018-06-21T00:47:41.187Z,10.07
2018-06-21T00:50:09.809Z,10.03
2018-06-21T00:52:37.979Z,9.90
2018-06-21T00:55:06.197Z,11.10
2018-06-21T00:57:34.369Z,11.73
2018-06-21T01:00:02.860Z,10.13
2018-06-21T01:02:31.003Z,10.77
2018-06-21T01:04:59.480Z,11.30
2018-06-21T01:07:27.935Z,10.77
2018-06-21T01:09:56.095Z,9.67
2018-06-21T01:12:24.544Z,10.80
2018-06-21T01:14:54.112Z,10.77
2018-06-21T01:17:22.640Z,11.23
2018-06-21T01:19:51.136Z,9.20
2018-06-21T01:22:19.665Z,10.50
2018-06-21T01:24:47.889Z,9.70
2018-06-21T01:27:16.378Z,10.73
2018-06-21T01:29:44.983Z,11.50
2018-06-21T01:32:13.486Z,11.87
2018-06-21T01:34:42.005Z,12.60
2018-06-21T01:37:10.514Z,11.30
2018-06-21T01:39:38.875Z,13.57
2018-06-21T01:42:07.137Z,11.80
2018-06-21T01:44:35.641Z,11.37
2018-06-21T01:47:04.223Z,11.97
2018-06-21T01:49:32.384Z,10.47
2018-06-21T01:52:00.554Z,10.80
2018-06-21T01:54:28.725Z,12.37
2018-06-21T01:56:56.938Z,12.63
2018-06-21T01:59:25.467Z,12.40
2018-06-21T02:01:53.938Z,13.90
2018-06-21T02:04:22.678Z,11.97
2018-06-21T02:06:50.830Z,12.53
2018-06-21T02:09:19.288Z,13.57
2018-06-21T02:11:47.796Z,14.40
2018-06-21T02:14:16.289Z,12.97
2018-06-21T02:16:44.500Z,12.90
2018-06-21T02:19:13.168Z,13.93
2018-06-21T02:21:41.440Z,13.23
2018-06-21T02:24:09.923Z,13.17
2018-06-21T02:26:38.310Z,13.87
2018-06-21T02:29:06.888Z,13.13
2018-06-21T02:31:36.043Z,13.77
2018-06-21T02:34:04.400Z,12.37
2018-06-21T02:36:32.860Z,13.20
2018-06-21T02:39:01.058Z,12.57
2018-06-21T02:41:29.616Z,13.23
2018-06-21T02:43:58.142Z,10.80
2018-06-21T02:46:26.643Z,13.80
2018-06-21T02:48:55.175Z,13.07
2018-06-21T02:51:23.421Z,13.10
2018-06-21T02:53:51.590Z,12.50
2018-06-21T02:56:20.082Z,12.77
2018-06-21T02:58:48.325Z,13.37
2018-06-21T03:01:17.005Z,14.10
2018-06-21T03:03:45.255Z,13.37
2018-06-21T03:06:13.793Z,14.13
2018-06-21T03:08:42.398Z,13.00
2018-06-21T03:11:10.616Z,14.57
2018-06-21T03:13:39.099Z,12.33
2018-06-21T03:16:07.672Z,14.77
2018-06-21T03:18:35.870Z,11.93
2018-06-21T03:21:04.077Z,13.43
2018-06-21T03:23:32.661Z,12.90
2018-06-21T03:26:01.169Z,12.87
2018-06-21T03:28:29.430Z,14.10
2018-06-21T03:30:57.939Z,13.40
2018-06-21T03:33:26.395Z,13.47
2018-06-21T03:35:54.873Z,12.90
2018-06-21T03:38:23.039Z,12.17
2018-06-21T03:40:51.592Z,13.90
2018-06-21T03:43:20.544Z,15.43
2018-06-21T03:45:49.259Z,13.83
2018-06-21T03:48:17.440Z,14.50
2018-06-21T03:59:24.593Z,13.90
2018-06-21T04:01:52.784Z,14.13
2018-06-21T04:04:21.283Z,14.97
2018-06-21T04:06:49.855Z,15.33
2018-06-21T04:09:18.032Z,14.07
2018-06-21T04:11:46.527Z,13.90
2018-06-21T04:14:15.071Z,13.70
2018-06-21T04:16:43.576Z,15.10
2018-06-21T04:19:11.779Z,14.27
2018-06-21T04:21:40.259Z,13.70
2018-06-21T04:24:08.480Z,12.93
2018-06-21T04:26:36.967Z,12.87
2018-06-21T04:29:05.471Z,12.70
2018-06-21T04:31:33.960Z,12.60
2018-06-21T04:34:02.205Z,13.50
2018-06-21T04:36:30.663Z,13.73
2018-06-21T04:38:58.859Z,13.70
2018-06-21T04:41:27.341Z,15.20
2018-06-21T04:43:55.832Z,14.43
2018-06-21T04:46:24.461Z,14.33
2018-06-21T04:48:52.985Z,13.47
2018-06-21T04:51:21.451Z,15.30
2018-06-21T04:53:49.609Z,14.60
2018-06-21T04:56:17.771Z,14.90
2018-06-21T04:58:46.367Z,17.13
2018-06-21T05:01:14.828Z,14.43
2018-06-21T05:03:43.027Z,14.60
2018-06-21T05:06:11.481Z,16.07
2018-06-21T05:08:40.004Z,16.07
2018-06-21T05:11:08.502Z,16.17
2018-06-21T05:13:37.325Z,14.97
2018-06-21T05:16:05.870Z,15.37
2018-06-21T05:18:34.396Z,16.30
2018-06-21T05:21:02.880Z,15.30
2018-06-21T05:23:31.410Z,15.73
2018-06-21T05:26:00.973Z,15.60
2018-06-21T05:28:29.480Z,15.03
2018-06-21T05:30:57.990Z,15.00
2018-06-21T05:33:26.190Z,15.47
2018-06-21T05:35:54.475Z,14.73
2018-06-21T05:38:22.978Z,15.43
2018-06-21T05:40:51.449Z,14.67
2018-06-21T05:43:19.980Z,14.93
2018-06-21T05:45:48.183Z,13.93
2018-06-21T05:48:16.657Z,13.73
2018-06-21T05:50:45.156Z,14.13
2018-06-21T05:53:13.735Z,14.07
2018-06-21T05:55:42.203Z,13.70
2018-06-21T05:58:10.744Z,13.87
2018-06-21T06:00:39.265Z,13.87
2018-06-21T06:03:07.760Z,12.33
2018-06-21T06:05:36.225Z,11.93
2018-06-21T06:08:04.725Z,11.23
2018-06-21T06:10:33.218Z,10.20
2018-06-21T06:13:01.405Z,11.00
2018-06-21T06:15:29.599Z,10.23
2018-06-21T06:17:58.120Z,11.60
2018-06-21T06:20:26.292Z,10.50
2018-06-21T06:22:54.820Z,11.27
2018-06-21T06:25:23.309Z,10.30
2018-06-21T06:27:51.813Z,10.17
2018-06-21T06:30:20.295Z,9.87
2018-06-21T06:32:49.033Z,10.27
2018-06-21T06:35:17.543Z,10.47
2018-06-21T06:37:46.084Z,9.70
2018-06-21T06:40:14.628Z,8.93
2018-06-21T06:42:42.857Z,9.47
2018-06-21T06:45:11.343Z,9.20
2018-06-21T06:47:39.857Z,7.67
2018-06-21T06:50:08.398Z,8.50
2018-06-21T06:52:37.122Z,9.03
2018-06-21T06:55:06.136Z,8.67
2018-06-21T06:57:34.626Z,7.00
2018-06-21T07:00:03.252Z,7.03
2018-06-21T07:02:31.420Z,7.60
2018-06-21T07:04:59.951Z,6.87
2018-06-21T07:07:28.443Z,6.77
2018-06-21T07:09:56.957Z,7.20
2018-06-21T07:12:25.171Z,7.33
2018-06-21T07:14:53.923Z,6.80
2018-06-21T07:17:22.080Z,7.30
2018-06-21T07:19:50.545Z,7.00
2018-06-21T07:22:19.035Z,7.20
2018-06-21T07:24:47.601Z,5.50
2018-06-21T07:27:16.068Z,5.70
2018-06-21T07:29:44.542Z,7.37
2018-06-21T07:32:13.075Z,7.00
2018-06-21T07:34:41.523Z,6.20
2018-06-21T07:37:10.024Z,6.77
2018-06-21T07:39:38.615Z,6.63
2018-06-21T07:42:07.137Z,6.30
2018-06-21T07:44:35.299Z,6.07
2018-06-21T07:47:03.862Z,5.30
2018-06-21T07:49:32.395Z,5.60
2018-06-21T07:52:00.984Z,5.73
2018-06-21T07:54:29.503Z,5.03
2018-06-21T07:56:58.006Z,5.53
2018-06-21T07:59:26.475Z,4.73
2018-06-21T08:01:55.213Z,5.53
2018-06-21T08:04:23.694Z,5.13
2018-06-21T08:06:51.870Z,4.80
2018-06-21T08:09:20.349Z,4.90
2018-06-21T08:11:48.861Z,5.33
2018-06-21T08:14:17.032Z,4.50
2018-06-21T08:16:45.622Z,4.40
2018-06-21T08:19:14.171Z,5.10
2018-06-21T08:21:42.657Z,5.03
2018-06-21T08:24:11.134Z,4.20
2018-06-21T08:26:39.718Z,4.77
2018-06-21T08:29:07.835Z,3.80
2018-06-21T08:31:35.974Z,3.73
2018-06-21T08:34:04.535Z,3.50
2018-06-21T08:36:33.218Z,3.90
2018-06-21T08:39:01.725Z,5.77
2018-06-21T08:41:34.240Z,4.10
2018-06-21T08:44:02.720Z,3.53
2018-06-21T08:46:31.739Z,3.80
2018-06-21T08:49:00.441Z,4.00
2018-06-21T08:51:29.108Z,3.37
2018-06-21T08:53:57.595Z,3.50
2018-06-21T08:56:26.058Z,3.40
2018-06-21T08:58:54.509Z,3.20
2018-06-21T09:01:23.019Z,3.20
2018-06-21T09:03:51.570Z,3.20
2018-06-21T09:06:20.074Z,3.47
2018-06-21T09:08:48.562Z,4.37
2018-06-21T09:11:17.065Z,3.23
2018-06-21T09:13:45.551Z,3.37
2018-06-21T09:16:14.064Z,3.50
2018-06-21T09:18:42.566Z,3.17
2018-06-21T09:21:11.101Z,3.03
2018-06-21T09:23:39.561Z,4.30
2018-06-21T09:26:08.036Z,3.40
2018-06-21T09:28:36.537Z,3.30
2018-06-21T09:31:04.764Z,3.67
2018-06-21T09:33:33.306Z,3.00
2018-06-21T09:36:01.886Z,2.93
2018-06-21T09:38:35.539Z,2.90
2018-06-21T09:42:06.776Z,3.13
2018-06-21T09:44:35.954Z,3.10
2018-06-21T09:47:09.740Z,3.30
2018-06-21T09:49:38.247Z,3.43
2018-06-21T09:52:06.886Z,2.77
2018-06-21T09:54:35.356Z,3.10
2018-06-21T10:02:36.218Z,3.10
2018-06-21T10:05:04.683Z,3.03
2018-06-21T10:07:33.560Z,3.23
2018-06-21T10:10:02.071Z,3.30
2018-06-21T10:12:30.587Z,3.30
2018-06-21T10:14:59.090Z,3.53
2018-06-21T10:17:27.569Z,3.77
2018-06-21T10:19:56.078Z,3.77
2018-06-21T10:22:24.531Z,3.77
2018-06-21T10:24:52.819Z,3.60
2018-06-21T10:27:21.323Z,4.50
2018-06-21T10:29:49.787Z,4.20
2018-06-21T10:32:18.327Z,3.67
2018-06-21T10:34:46.810Z,4.10
2018-06-21T10:37:15.592Z,4.00
2018-06-21T10:39:44.086Z,4.17
2018-06-21T10:42:12.634Z,3.87
2018-06-21T10:44:40.916Z,3.57
2018-06-21T10:47:09.716Z,3.50
2018-06-21T10:49:38.203Z,3.50
2018-06-21T10:52:06.777Z,3.73
2018-06-21T10:57:28.555Z,3.73
2018-06-21T10:59:57.746Z,3.10
2018-06-21T11:02:26.260Z,3.80
2018-06-21T11:04:54.736Z,3.90
2018-06-21T11:07:23.339Z,3.50
2018-06-21T11:09:51.884Z,3.47
2018-06-21T11:12:20.361Z,3.37
2018-06-21T11:14:48.873Z,3.43
2018-06-21T11:17:17.409Z,3.20
2018-06-21T11:19:45.916Z,3.87
2018-06-21T11:22:14.416Z,3.57
2018-06-21T11:24:42.926Z,4.10
2018-06-21T11:27:11.422Z,4.33
2018-06-21T11:29:39.921Z,4.00
2018-06-21T11:32:08.110Z,4.10
2018-06-21T11:34:36.255Z,3.87
2018-06-21T11:37:04.815Z,3.07
2018-06-21T11:39:33.328Z,3.30
2018-06-21T11:42:02.144Z,4.77
2018-06-21T11:44:30.660Z,3.40
2018-06-21T11:46:59.180Z,3.30
2018-06-21T11:49:28.956Z,3.47
2018-06-21T11:51:57.456Z,3.70
2018-06-21T11:54:25.926Z,3.83
2018-06-21T11:56:54.466Z,3.33
2018-06-21T11:59:22.996Z,3.37
2018-06-21T12:01:51.568Z,3.10
2018-06-21T12:04:20.067Z,5.00
2018-06-21T12:06:48.654Z,3.80
2018-06-21T12:09:16.937Z,4.10
2018-06-21T12:11:45.132Z,3.60
2018-06-21T12:14:13.691Z,3.27
2018-06-21T12:16:42.014Z,3.70
2018-06-21T12:19:10.618Z,3.50
2018-06-21T12:21:38.766Z,3.47
2018-06-21T12:24:07.257Z,3.50
2018-06-21T12:26:36.308Z,3.30
2018-06-21T12:29:04.702Z,3.60
2018-06-21T12:31:33.175Z,3.50
2018-06-21T12:34:01.439Z,3.53
2018-06-21T12:36:29.603Z,3.90
2018-06-21T12:38:58.110Z,3.47
2018-06-21T12:41:26.309Z,3.67
2018-06-21T12:43:54.492Z,3.90
2018-06-21T12:46:22.638Z,3.50
2018-06-21T12:48:51.236Z,3.67
2018-06-21T12:51:19.408Z,4.17
2018-06-21T12:53:47.875Z,3.60
2018-06-21T12:56:16.419Z,3.50
2018-06-21T12:58:45.061Z,3.60
2018-06-21T13:01:13.553Z,3.70
2018-06-21T13:03:42.126Z,4.03
2018-06-21T13:06:10.642Z,3.53
2018-06-21T13:08:50.359Z,3.50
2018-06-21T13:12:33.102Z,4.57
2018-06-21T13:15:01.747Z,3.80
2018-06-21T13:17:31.452Z,3.70
2018-06-21T13:20:01.135Z,3.80
2018-06-21T13:22:29.381Z,4.23
2018-06-21T13:24:57.670Z,4.40
2018-06-21T13:27:26.132Z,4.73
2018-06-21T13:29:54.663Z,4.70
2018-06-21T13:32:22.828Z,4.30
2018-06-21T13:34:51.421Z,3.87
2018-06-21T13:37:19.941Z,4.60
2018-06-21T13:39:48.398Z,4.43
2018-06-21T13:42:16.868Z,3.97
2018-06-21T13:44:45.382Z,4.53
2018-06-21T13:47:15.012Z,4.13
2018-06-21T13:49:43.534Z,3.30
2018-06-21T13:52:12.075Z,4.27
2018-06-21T13:54:40.273Z,3.53
2018-06-21T13:57:08.788Z,3.70
2018-06-21T13:59:37.320Z,3.70
2018-06-21T14:02:05.978Z,3.80
2018-06-21T14:04:34.690Z,4.23
2018-06-21T14:07:03.162Z,3.53
2018-06-21T14:09:31.321Z,4.13
2018-06-21T14:11:59.796Z,3.70
2018-06-21T14:14:28.276Z,3.63
2018-06-21T14:16:56.636Z,4.40
2018-06-21T14:28:13.632Z,3.90
2018-06-21T14:30:41.737Z,3.40
2018-06-21T14:33:09.873Z,3.97
2018-06-21T14:35:38.264Z,4.00
2018-06-21T14:38:06.684Z,3.63
2018-06-21T14:40:35.083Z,3.77
2018-06-21T14:43:03.173Z,4.40
2018-06-21T14:45:31.581Z,3.83
2018-06-21T14:48:00.034Z,3.97
2018-06-21T14:50:28.370Z,3.10
2018-06-21T14:52:56.778Z,3.87
2018-06-21T14:55:25.200Z,3.60
2018-06-21T14:57:53.667Z,3.80
2018-06-21T15:00:21.772Z,3.73
2018-06-21T15:02:50.306Z,4.40
2018-06-21T15:05:18.451Z,3.70
2018-06-21T15:07:46.843Z,3.87
2018-06-21T15:10:14.941Z,3.80
2018-06-21T15:12:43.371Z,4.13
2018-06-21T15:15:11.812Z,3.87
2018-06-21T15:17:40.266Z,5.73
2018-06-21T15:20:08.837Z,7.20
2018-06-21T15:22:37.265Z,6.13
2018-06-21T15:25:05.386Z,6.83
2018-06-21T15:27:33.510Z,5.40
2018-06-21T15:30:01.617Z,5.70
2018-06-21T15:32:30.001Z,5.67
2018-06-21T15:34:58.479Z,5.20
2018-06-21T15:37:26.593Z,5.90
2018-06-21T15:39:55.078Z,6.37
2018-06-21T15:42:23.516Z,6.03
2018-06-21T15:44:52.186Z,7.30
2018-06-21T15:47:20.641Z,5.80
2018-06-21T15:49:49.138Z,7.03
2018-06-21T15:52:17.281Z,6.80
2018-06-21T15:54:45.732Z,6.43
2018-06-21T15:57:14.142Z,6.77
2018-06-21T15:59:42.612Z,5.77
2018-06-21T16:02:11.107Z,5.00
2018-06-21T16:04:41.812Z,5.20
2018-06-21T16:07:10.335Z,5.40
2018-06-21T16:09:38.477Z,5.27
2018-06-21T16:12:06.587Z,5.00
2018-06-21T16:14:35.092Z,4.63
2018-06-21T16:17:03.530Z,5.67
2018-06-21T16:19:32.011Z,5.70
2018-06-21T16:22:00.495Z,4.30
2018-06-21T16:24:28.641Z,4.40
2018-06-21T16:26:57.138Z,4.17
2018-06-21T16:29:25.645Z,4.80
2018-06-21T16:31:54.430Z,3.60
2018-06-21T16:34:23.124Z,3.83
2018-06-21T16:36:51.548Z,4.13
2018-06-21T16:39:20.004Z,5.50
2018-06-21T16:41:48.489Z,3.23
2018-06-21T16:44:17.609Z,3.73
2018-06-21T16:46:46.317Z,2.93
2018-06-21T16:49:14.579Z,3.97
2018-06-21T16:51:43.380Z,3.93
2018-06-21T16:54:11.745Z,4.50
2018-06-21T16:56:40.400Z,3.97
2018-06-21T16:59:09.222Z,3.20
2018-06-21T17:01:37.382Z,4.00
2018-06-21T17:04:05.585Z,3.63
2018-06-21T17:06:34.700Z,3.60
2018-06-21T17:09:03.401Z,3.67
2018-06-21T17:11:31.960Z,3.73
2018-06-21T17:14:01.457Z,3.30
2018-06-21T17:16:30.047Z,3.40
2018-06-21T17:18:58.248Z,3.53
2018-06-21T17:21:26.937Z,3.00
2018-06-21T17:23:55.507Z,3.93
2018-06-21T17:26:24.531Z,3.47
2018-06-21T17:28:53.176Z,3.93
2018-06-21T17:31:21.720Z,3.90
2018-06-21T17:33:50.391Z,3.83
2018-06-21T17:36:18.937Z,3.43
2018-06-21T17:38:47.609Z,3.17
2018-06-21T17:41:15.933Z,3.50
2018-06-21T17:43:44.230Z,3.93
2018-06-21T17:46:13.796Z,4.03
2018-06-21T17:48:44.911Z,4.73
2018-06-21T17:51:13.548Z,3.43
2018-06-21T17:53:42.182Z,4.03
2018-06-21T17:56:11.747Z,3.90
2018-06-21T17:58:40.301Z,3.60
2018-06-21T18:01:08.582Z,4.10
2018-06-21T18:03:37.024Z,3.97
2018-06-21T18:06:05.581Z,4.47
2018-06-21T18:08:35.093Z,3.50
2018-06-21T18:11:03.654Z,3.80
2018-06-21T18:13:32.328Z,3.40
2018-06-21T18:16:00.535Z,3.47
2018-06-21T18:18:30.044Z,4.40
2018-06-21T18:20:58.593Z,3.73
2018-06-21T18:23:26.826Z,3.70
2018-06-21T18:25:55.431Z,3.97
2018-06-21T18:28:25.634Z,4.50
2018-06-21T18:30:53.978Z,3.67
2018-06-21T18:33:22.681Z,4.23
2018-06-21T18:35:51.068Z,4.00
2018-06-21T18:38:19.621Z,3.90
2018-06-21T18:40:47.948Z,4.60
2018-06-21T18:43:17.395Z,3.63
2018-06-21T18:45:45.946Z,5.00
2018-06-21T18:48:14.559Z,4.90
2018-06-21T18:50:43.241Z,4.20
2018-06-21T18:53:12.541Z,4.43
2018-06-21T18:55:41.338Z,5.07
2018-06-21T18:58:09.565Z,5.90
2018-06-21T19:00:38.801Z,5.10
2018-06-21T19:03:10.346Z,4.70
2018-06-21T19:05:39.471Z,4.90
2018-06-21T19:08:13.320Z,5.00
2018-06-21T19:10:48.273Z,5.00
2018-06-21T19:13:17.271Z,5.00
2018-06-21T19:15:45.549Z,4.43
2018-06-21T19:18:14.231Z,4.00
2018-06-21T19:20:43.190Z,4.20
2018-06-21T19:23:12.339Z,4.50
2018-06-21T19:25:41.922Z,3.83
2018-06-21T19:28:11.561Z,4.93
2018-06-21T19:30:40.255Z,5.27
2018-06-21T19:33:08.557Z,4.50
2018-06-21T19:35:36.803Z,3.90
2018-06-21T19:38:05.038Z,3.97
2018-06-21T19:40:34.007Z,4.70
2018-06-21T19:43:02.703Z,4.50
2018-06-21T19:45:31.058Z,3.73
2018-06-21T19:47:59.429Z,3.77
2018-06-21T19:50:27.676Z,3.40
2018-06-21T19:52:56.798Z,3.70
2018-06-21T19:55:25.010Z,4.20
2018-06-21T19:57:53.913Z,3.93
2018-06-21T20:00:23.917Z,3.97
2018-06-21T20:02:58.525Z,4.80
2018-06-21T20:05:27.854Z,3.60
2018-06-21T20:07:56.440Z,3.67
2018-06-21T20:10:25.366Z,4.20
2018-06-21T20:12:53.950Z,3.90
2018-06-21T20:15:22.538Z,4.90
2018-06-21T20:17:51.708Z,3.63
2018-06-21T20:20:25.240Z,3.20
2018-06-21T20:22:53.827Z,3.90
2018-06-21T20:25:21.957Z,4.03
2018-06-21T20:27:50.490Z,4.30
2018-06-21T20:30:18.740Z,4.13
2018-06-21T20:32:47.745Z,4.53
2018-06-21T20:35:16.711Z,3.87
2018-06-21T20:37:45.259Z,4.40
2018-06-21T20:40:13.489Z,3.87
2018-06-21T20:42:42.319Z,4.67
2018-06-21T20:45:10.500Z,4.20
2018-06-21T20:47:38.994Z,5.20
2018-06-21T20:50:07.806Z,4.63
2018-06-21T20:52:36.277Z,4.60
2018-06-21T20:55:04.874Z,5.23
2018-06-21T20:57:33.342Z,5.10
2018-06-21T21:00:01.820Z,3.50
2018-06-21T21:02:30.185Z,4.33
2018-06-21T21:05:10.809Z,4.57
2018-06-21T21:07:39.162Z,4.60
2018-06-21T21:10:08.315Z,4.83
2018-06-21T21:12:36.482Z,4.60
2018-06-21T21:15:05.798Z,5.70
2018-06-21T21:17:34.748Z,4.70
2018-06-21T21:20:04.072Z,4.50
2018-06-21T21:22:32.210Z,5.50
2018-06-21T21:25:00.683Z,4.87
2018-06-21T21:27:29.152Z,5.30
2018-06-21T21:29:57.654Z,5.60
2018-06-21T21:32:26.566Z,5.50
2018-06-21T21:34:55.760Z,4.90
2018-06-21T21:37:24.204Z,5.30
2018-06-21T21:39:56.378Z,5.53
2018-06-21T21:42:24.573Z,5.67
2018-06-21T21:44:52.993Z,5.90
2018-06-21T21:47:21.418Z,5.63
2018-06-21T21:49:49.858Z,5.67
2018-06-21T21:52:17.974Z,6.33
2018-06-21T21:54:46.054Z,6.50
2018-06-21T21:57:14.452Z,6.37
2018-06-21T21:59:42.622Z,6.03
2018-06-21T22:02:11.014Z,6.20
2018-06-21T22:04:39.135Z,5.57
2018-06-21T22:07:07.243Z,4.80
2018-06-21T22:09:35.704Z,6.17
2018-06-21T22:12:03.814Z,6.03
2018-06-21T22:14:31.911Z,6.10
2018-06-21T22:17:00.354Z,6.00
2018-06-21T22:19:28.770Z,5.43
2018-06-21T22:21:56.918Z,5.87
2018-06-21T22:24:25.332Z,5.80
2018-06-21T22:26:53.440Z,4.63
2018-06-21T22:29:21.842Z,5.20
2018-06-21T22:31:50.238Z,4.60
2018-06-21T22:34:18.873Z,4.53
2018-06-21T22:36:47.493Z,4.17
2018-06-21T22:39:15.655Z,3.70
2018-06-21T22:41:44.768Z,3.40
2018-06-21T22:44:13.758Z,3.83
2018-06-21T22:46:42.141Z,3.97
2018-06-21T22:49:10.318Z,3.23
2018-06-21T22:51:38.776Z,3.50
2018-06-21T22:54:07.418Z,3.27
2018-06-21T22:56:35.842Z,3.40
2018-06-21T22:59:04.274Z,3.50
2018-06-21T23:01:32.685Z,3.20
2018-06-21T23:04:00.768Z,3.30
2018-06-21T23:06:29.177Z,3.07
2018-06-21T23:08:57.269Z,2.90
2018-06-21T23:11:25.681Z,2.63
2018-06-21T23:13:53.781Z,2.93
2018-06-21T23:16:21.875Z,2.73
2018-06-21T23:19:01.620Z,2.90
2018-06-21T23:21:30.041Z,2.53
2018-06-21T23:23:58.171Z,2.90
2018-06-21T23:26:26.599Z,2.30
2018-06-21T23:28:54.717Z,2.67
2018-06-21T23:31:22.827Z,2.63
2018-06-21T23:33:51.231Z,2.97
2018-06-21T23:36:19.343Z,2.63
2018-06-21T23:38:47.743Z,2.60
2018-06-21T23:41:15.843Z,2.10
2018-06-21T23:43:43.972Z,2.50
2018-06-21T23:46:12.393Z,1.90
2018-06-21T23:48:40.487Z,2.17
2018-06-21T23:51:08.939Z,2.83
2018-06-21T23:53:37.369Z,2.60
2018-06-21T23:56:05.793Z,2.40
2018-06-21T23:58:34.235Z,2.40
